sensor_id;sensor_type;location;lat;lon;timestamp;temperature;humidity
6307;DHT22;3186;54.062;9.962;2023-08-30T00:00:52;16.20;99.90
6307;DHT22;3186;54.062;9.962;2023-08-30T00:03:18;16.20;99.90
6307;DHT22;3186;54.062;9.962;2023-08-30T00:05:45;16.10;99.90
6307;DHT22;3186;54.062;9.962;2023-08-30T00:08:11;16.10;99.90
6307;DHT22;3186;54.062;9.962;2023-08-30T00:10:39;16.10;99.90
6307;DHT22;3186;54.062;9.962;2023-08-30T00:13:05;16.10;99.90
6307;DHT22;3186;54.062;9.962;2023-08-30T00:15:31;16.00;99.90
6307;DHT22;3186;54.062;9.962;2023-08-30T00:17:56;16.00;99.90
6307;DHT22;3186;54.062;9.962;2023-08-30T00:20:22;16.00;99.90
6307;DHT22;3186;54.062;9.962;2023-08-30T00:22:48;16.00;99.90
6307;DHT22;3186;54.062;9.962;2023-08-30T00:25:15;15.90;99.90
6307;DHT22;3186;54.062;9.962;2023-08-30T00:27:41;15.90;99.90
6307;DHT22;3186;54.062;9.962;2023-08-30T00:30:08;15.90;99.90
6307;DHT22;3186;54.062;9.962;2023-08-30T00:32:35;15.90;99.90
6307;DHT22;3186;54.062;9.962;2023-08-30T00:35:01;15.80;99.90
6307;DHT22;3186;54.062;9.962;2023-08-30T00:37:27;15.80;99.90
6307;DHT22;3186;54.062;9.962;2023-08-30T00:39:53;15.80;99.90
6307;DHT22;3186;54.062;9.962;2023-08-30T00:42:19;15.80;99.90
6307;DHT22;3186;54.062;9.962;2023-08-30T00:44:45;15.80;99.90
6307;DHT22;3186;54.062;9.962;2023-08-30T00:47:11;15.70;99.90
6307;DHT22;3186;54.062;9.962;2023-08-30T00:49:37;15.70;99.90
6307;DHT22;3186;54.062;9.962;2023-08-30T00:52:06;15.70;99.90
6307;DHT22;3186;54.062;9.962;2023-08-30T00:54:33;15.60;99.90
6307;DHT22;3186;54.062;9.962;2023-08-30T00:57:00;15.60;99.90
6307;DHT22;3186;54.062;9.962;2023-08-30T00:59:28;15.60;99.90
6307;DHT22;3186;54.062;9.962;2023-08-30T01:01:55;15.60;99.90
6307;DHT22;3186;54.062;9.962;2023-08-30T01:04:21;15.60;99.90
6307;DHT22;3186;54.062;9.962;2023-08-30T01:06:48;15.50;99.90
6307;DHT22;3186;54.062;9.962;2023-08-30T01:09:15;15.50;99.90
6307;DHT22;3186;54.062;9.962;2023-08-30T01:12:02;15.40;99.90
6307;DHT22;3186;54.062;9.962;2023-08-30T01:16:59;15.40;99.90
6307;DHT22;3186;54.062;9.962;2023-08-30T01:28:03;15.30;99.90
6307;DHT22;3186;54.062;9.962;2023-08-30T01:30:32;15.30;99.90
6307;DHT22;3186;54.062;9.962;2023-08-30T01:33:01;15.30;99.90
6307;DHT22;3186;54.062;9.962;2023-08-30T01:35:30;15.20;99.90
6307;DHT22;3186;54.062;9.962;2023-08-30T01:38:00;15.20;99.90
6307;DHT22;3186;54.062;9.962;2023-08-30T01:40:28;15.20;99.90
6307;DHT22;3186;54.062;9.962;2023-08-30T01:42:56;15.20;99.90
6307;DHT22;3186;54.062;9.962;2023-08-30T01:45:24;15.20;99.90
6307;DHT22;3186;54.062;9.962;2023-08-30T01:47:50;15.10;99.90
6307;DHT22;3186;54.062;9.962;2023-08-30T01:50:19;15.10;99.90
6307;DHT22;3186;54.062;9.962;2023-08-30T01:52:46;15.10;99.90
6307;DHT22;3186;54.062;9.962;2023-08-30T01:55:14;15.10;99.90
6307;DHT22;3186;54.062;9.962;2023-08-30T01:57:40;15.00;99.90
6307;DHT22;3186;54.062;9.962;2023-08-30T02:00:07;15.00;99.90
6307;DHT22;3186;54.062;9.962;2023-08-30T02:02:41;15.00;99.90
6307;DHT22;3186;54.062;9.962;2023-08-30T02:05:07;15.00;99.90
6307;DHT22;3186;54.062;9.962;2023-08-30T02:07:58;14.90;99.90
6307;DHT22;3186;54.062;9.962;2023-08-30T02:10:33;14.90;99.90
6307;DHT22;3186;54.062;9.962;2023-08-30T02:13:00;14.90;99.90
6307;DHT22;3186;54.062;9.962;2023-08-30T02:15:27;14.90;99.90
6307;DHT22;3186;54.062;9.962;2023-08-30T02:17:55;14.80;99.90
6307;DHT22;3186;54.062;9.962;2023-08-30T02:20:22;14.80;99.90
6307;DHT22;3186;54.062;9.962;2023-08-30T02:22:48;14.80;99.90
6307;DHT22;3186;54.062;9.962;2023-08-30T02:25:14;14.80;99.90
6307;DHT22;3186;54.062;9.962;2023-08-30T02:27:49;14.70;99.90
6307;DHT22;3186;54.062;9.962;2023-08-30T02:30:15;14.70;99.90
6307;DHT22;3186;54.062;9.962;2023-08-30T02:32:41;14.70;99.90
6307;DHT22;3186;54.062;9.962;2023-08-30T02:35:08;14.60;99.90
6307;DHT22;3186;54.062;9.962;2023-08-30T02:37:34;14.60;99.90
6307;DHT22;3186;54.062;9.962;2023-08-30T02:40:00;14.60;99.90
6307;DHT22;3186;54.062;9.962;2023-08-30T02:42:26;14.60;99.90
6307;DHT22;3186;54.062;9.962;2023-08-30T02:44:53;14.60;99.90
6307;DHT22;3186;54.062;9.962;2023-08-30T02:47:19;14.60;99.90
6307;DHT22;3186;54.062;9.962;2023-08-30T02:49:45;14.50;99.90
6307;DHT22;3186;54.062;9.962;2023-08-30T02:52:12;14.50;99.90
6307;DHT22;3186;54.062;9.962;2023-08-30T02:54:38;14.50;99.90
6307;DHT22;3186;54.062;9.962;2023-08-30T02:57:04;14.50;99.90
6307;DHT22;3186;54.062;9.962;2023-08-30T02:59:30;14.50;99.90
6307;DHT22;3186;54.062;9.962;2023-08-30T03:02:02;14.50;99.90
6307;DHT22;3186;54.062;9.962;2023-08-30T03:04:28;14.40;99.90
6307;DHT22;3186;54.062;9.962;2023-08-30T03:06:54;14.40;99.90
6307;DHT22;3186;54.062;9.962;2023-08-30T03:09:20;14.40;99.90
6307;DHT22;3186;54.062;9.962;2023-08-30T03:11:46;14.40;99.90
6307;DHT22;3186;54.062;9.962;2023-08-30T03:14:11;14.40;99.90
6307;DHT22;3186;54.062;9.962;2023-08-30T03:16:37;14.40;99.90
6307;DHT22;3186;54.062;9.962;2023-08-30T03:19:03;14.40;99.90
6307;DHT22;3186;54.062;9.962;2023-08-30T03:21:30;14.30;99.90
6307;DHT22;3186;54.062;9.962;2023-08-30T03:23:56;14.30;99.90
6307;DHT22;3186;54.062;9.962;2023-08-30T03:26:22;14.30;99.90
6307;DHT22;3186;54.062;9.962;2023-08-30T03:28:49;14.30;99.90
6307;DHT22;3186;54.062;9.962;2023-08-30T03:31:15;14.30;99.90
6307;DHT22;3186;54.062;9.962;2023-08-30T03:33:41;14.30;99.90
6307;DHT22;3186;54.062;9.962;2023-08-30T03:36:09;14.30;99.90
6307;DHT22;3186;54.062;9.962;2023-08-30T03:38:36;14.30;99.90
6307;DHT22;3186;54.062;9.962;2023-08-30T03:41:03;14.30;99.90
6307;DHT22;3186;54.062;9.962;2023-08-30T03:43:30;14.30;99.90
6307;DHT22;3186;54.062;9.962;2023-08-30T03:45:56;14.30;99.90
6307;DHT22;3186;54.062;9.962;2023-08-30T03:48:22;14.30;99.90
6307;DHT22;3186;54.062;9.962;2023-08-30T03:50:48;14.30;99.90
6307;DHT22;3186;54.062;9.962;2023-08-30T03:53:13;14.30;99.90
6307;DHT22;3186;54.062;9.962;2023-08-30T03:55:40;14.30;99.90
6307;DHT22;3186;54.062;9.962;2023-08-30T03:58:06;14.30;99.90
6307;DHT22;3186;54.062;9.962;2023-08-30T04:00:32;14.30;99.90
6307;DHT22;3186;54.062;9.962;2023-08-30T04:03:00;14.30;99.90
6307;DHT22;3186;54.062;9.962;2023-08-30T04:05:26;14.30;99.90
6307;DHT22;3186;54.062;9.962;2023-08-30T04:07:52;14.30;99.90
6307;DHT22;3186;54.062;9.962;2023-08-30T04:10:18;14.30;99.90
6307;DHT22;3186;54.062;9.962;2023-08-30T04:12:46;14.30;99.90
6307;DHT22;3186;54.062;9.962;2023-08-30T04:15:12;14.30;99.90
6307;DHT22;3186;54.062;9.962;2023-08-30T04:17:39;14.30;99.90
6307;DHT22;3186;54.062;9.962;2023-08-30T04:20:05;14.30;99.90
6307;DHT22;3186;54.062;9.962;2023-08-30T04:22:32;14.30;99.90
6307;DHT22;3186;54.062;9.962;2023-08-30T04:25:01;14.30;99.90
6307;DHT22;3186;54.062;9.962;2023-08-30T04:27:27;14.30;99.90
6307;DHT22;3186;54.062;9.962;2023-08-30T04:29:53;14.30;99.90
6307;DHT22;3186;54.062;9.962;2023-08-30T04:32:19;14.30;99.90
6307;DHT22;3186;54.062;9.962;2023-08-30T04:34:45;14.30;99.90
6307;DHT22;3186;54.062;9.962;2023-08-30T04:37:13;14.30;99.90
6307;DHT22;3186;54.062;9.962;2023-08-30T04:39:42;14.30;99.90
6307;DHT22;3186;54.062;9.962;2023-08-30T04:42:08;14.30;99.90
6307;DHT22;3186;54.062;9.962;2023-08-30T04:44:34;14.30;99.90
6307;DHT22;3186;54.062;9.962;2023-08-30T04:47:00;14.30;99.90
6307;DHT22;3186;54.062;9.962;2023-08-30T04:49:26;14.30;99.90
6307;DHT22;3186;54.062;9.962;2023-08-30T04:51:52;14.30;99.90
6307;DHT22;3186;54.062;9.962;2023-08-30T04:54:18;14.40;99.90
6307;DHT22;3186;54.062;9.962;2023-08-30T04:56:44;14.40;99.90
6307;DHT22;3186;54.062;9.962;2023-08-30T04:59:10;14.40;99.90
6307;DHT22;3186;54.062;9.962;2023-08-30T05:01:43;14.30;99.90
6307;DHT22;3186;54.062;9.962;2023-08-30T05:04:18;14.40;99.90
6307;DHT22;3186;54.062;9.962;2023-08-30T05:06:50;14.40;99.90
6307;DHT22;3186;54.062;9.962;2023-08-30T05:09:15;14.40;99.90
6307;DHT22;3186;54.062;9.962;2023-08-30T05:11:42;14.40;99.90
6307;DHT22;3186;54.062;9.962;2023-08-30T05:14:08;14.40;99.90
6307;DHT22;3186;54.062;9.962;2023-08-30T05:16:39;14.40;99.90
6307;DHT22;3186;54.062;9.962;2023-08-30T05:19:05;14.50;99.90
6307;DHT22;3186;54.062;9.962;2023-08-30T05:21:31;14.50;99.90
6307;DHT22;3186;54.062;9.962;2023-08-30T05:23:57;14.50;99.90
6307;DHT22;3186;54.062;9.962;2023-08-30T05:26:23;14.50;99.90
6307;DHT22;3186;54.062;9.962;2023-08-30T05:28:49;14.50;99.90
6307;DHT22;3186;54.062;9.962;2023-08-30T05:31:14;14.50;99.90
6307;DHT22;3186;54.062;9.962;2023-08-30T05:34:05;14.60;99.90
6307;DHT22;3186;54.062;9.962;2023-08-30T05:37:07;14.60;99.90
6307;DHT22;3186;54.062;9.962;2023-08-30T05:39:54;14.60;99.90
6307;DHT22;3186;54.062;9.962;2023-08-30T05:42:20;14.60;99.90
6307;DHT22;3186;54.062;9.962;2023-08-30T05:44:49;14.70;99.90
6307;DHT22;3186;54.062;9.962;2023-08-30T05:47:16;14.70;99.90
6307;DHT22;3186;54.062;9.962;2023-08-30T05:49:44;14.70;99.90
6307;DHT22;3186;54.062;9.962;2023-08-30T05:52:10;14.70;99.90
6307;DHT22;3186;54.062;9.962;2023-08-30T05:54:35;14.80;99.90
6307;DHT22;3186;54.062;9.962;2023-08-30T05:57:02;14.70;99.90
6307;DHT22;3186;54.062;9.962;2023-08-30T05:59:27;14.80;99.90
6307;DHT22;3186;54.062;9.962;2023-08-30T06:01:53;14.80;99.90
6307;DHT22;3186;54.062;9.962;2023-08-30T06:04:19;14.90;99.90
6307;DHT22;3186;54.062;9.962;2023-08-30T06:06:45;14.90;99.90
6307;DHT22;3186;54.062;9.962;2023-08-30T06:09:11;15.00;99.90
6307;DHT22;3186;54.062;9.962;2023-08-30T06:11:38;15.00;99.90
6307;DHT22;3186;54.062;9.962;2023-08-30T06:14:04;15.00;99.90
6307;DHT22;3186;54.062;9.962;2023-08-30T06:16:30;15.10;99.90
6307;DHT22;3186;54.062;9.962;2023-08-30T06:18:57;15.20;99.90
6307;DHT22;3186;54.062;9.962;2023-08-30T06:21:25;15.20;99.90
6307;DHT22;3186;54.062;9.962;2023-08-30T06:23:51;15.30;99.90
6307;DHT22;3186;54.062;9.962;2023-08-30T06:26:18;15.30;99.90
6307;DHT22;3186;54.062;9.962;2023-08-30T06:28:44;15.20;99.90
6307;DHT22;3186;54.062;9.962;2023-08-30T06:31:10;15.30;99.90
6307;DHT22;3186;54.062;9.962;2023-08-30T06:33:36;15.40;99.90
6307;DHT22;3186;54.062;9.962;2023-08-30T06:36:02;15.50;99.90
6307;DHT22;3186;54.062;9.962;2023-08-30T06:38:28;15.50;99.90
6307;DHT22;3186;54.062;9.962;2023-08-30T06:40:54;15.60;99.90
6307;DHT22;3186;54.062;9.962;2023-08-30T06:43:23;15.70;99.90
6307;DHT22;3186;54.062;9.962;2023-08-30T06:45:48;15.70;99.90
6307;DHT22;3186;54.062;9.962;2023-08-30T06:48:14;15.80;99.90
6307;DHT22;3186;54.062;9.962;2023-08-30T06:50:40;16.00;99.90
6307;DHT22;3186;54.062;9.962;2023-08-30T06:53:06;15.90;99.90
6307;DHT22;3186;54.062;9.962;2023-08-30T06:55:31;16.00;99.90
6307;DHT22;3186;54.062;9.962;2023-08-30T06:57:59;16.00;99.90
6307;DHT22;3186;54.062;9.962;2023-08-30T07:00:24;16.10;99.90
6307;DHT22;3186;54.062;9.962;2023-08-30T07:02:50;16.10;99.90
6307;DHT22;3186;54.062;9.962;2023-08-30T07:05:16;16.40;99.90
6307;DHT22;3186;54.062;9.962;2023-08-30T07:07:42;16.40;99.90
6307;DHT22;3186;54.062;9.962;2023-08-30T07:10:08;16.60;99.90
6307;DHT22;3186;54.062;9.962;2023-08-30T07:12:34;16.60;99.90
6307;DHT22;3186;54.062;9.962;2023-08-30T07:15:01;16.60;99.90
6307;DHT22;3186;54.062;9.962;2023-08-30T07:17:28;16.50;99.90
6307;DHT22;3186;54.062;9.962;2023-08-30T07:19:54;16.50;99.90
6307;DHT22;3186;54.062;9.962;2023-08-30T07:22:20;16.70;99.90
6307;DHT22;3186;54.062;9.962;2023-08-30T07:24:46;16.90;99.90
6307;DHT22;3186;54.062;9.962;2023-08-30T07:27:11;17.00;99.90
6307;DHT22;3186;54.062;9.962;2023-08-30T07:29:38;16.90;99.90
6307;DHT22;3186;54.062;9.962;2023-08-30T07:32:07;16.70;99.90
6307;DHT22;3186;54.062;9.962;2023-08-30T07:34:33;16.70;99.90
6307;DHT22;3186;54.062;9.962;2023-08-30T07:36:59;16.90;99.90
6307;DHT22;3186;54.062;9.962;2023-08-30T07:39:25;17.00;99.90
6307;DHT22;3186;54.062;9.962;2023-08-30T07:41:50;17.10;99.90
6307;DHT22;3186;54.062;9.962;2023-08-30T07:44:16;17.10;99.90
6307;DHT22;3186;54.062;9.962;2023-08-30T07:46:42;17.00;99.90
6307;DHT22;3186;54.062;9.962;2023-08-30T07:49:08;17.20;99.90
6307;DHT22;3186;54.062;9.962;2023-08-30T07:51:33;17.30;99.90
6307;DHT22;3186;54.062;9.962;2023-08-30T07:53:59;17.40;99.90
6307;DHT22;3186;54.062;9.962;2023-08-30T07:56:25;17.40;99.90
6307;DHT22;3186;54.062;9.962;2023-08-30T07:58:51;17.60;99.90
6307;DHT22;3186;54.062;9.962;2023-08-30T08:01:17;17.60;99.90
6307;DHT22;3186;54.062;9.962;2023-08-30T08:03:43;17.80;99.90
6307;DHT22;3186;54.062;9.962;2023-08-30T08:06:08;17.80;99.90
6307;DHT22;3186;54.062;9.962;2023-08-30T08:08:34;17.90;99.90
6307;DHT22;3186;54.062;9.962;2023-08-30T08:11:00;17.80;99.90
6307;DHT22;3186;54.062;9.962;2023-08-30T08:13:26;17.90;99.90
6307;DHT22;3186;54.062;9.962;2023-08-30T08:15:52;18.10;99.90
6307;DHT22;3186;54.062;9.962;2023-08-30T08:18:17;18.10;99.90
6307;DHT22;3186;54.062;9.962;2023-08-30T08:20:43;18.40;99.90
6307;DHT22;3186;54.062;9.962;2023-08-30T08:23:09;18.60;99.90
6307;DHT22;3186;54.062;9.962;2023-08-30T08:25:36;18.70;99.90
6307;DHT22;3186;54.062;9.962;2023-08-30T08:28:01;18.70;99.90
6307;DHT22;3186;54.062;9.962;2023-08-30T08:30:29;18.60;99.90
6307;DHT22;3186;54.062;9.962;2023-08-30T08:32:54;18.70;99.90
6307;DHT22;3186;54.062;9.962;2023-08-30T08:35:21;19.00;99.90
6307;DHT22;3186;54.062;9.962;2023-08-30T08:37:47;19.10;99.90
6307;DHT22;3186;54.062;9.962;2023-08-30T08:40:13;19.10;99.90
6307;DHT22;3186;54.062;9.962;2023-08-30T08:42:39;19.20;99.90
6307;DHT22;3186;54.062;9.962;2023-08-30T08:45:09;19.30;99.90
6307;DHT22;3186;54.062;9.962;2023-08-30T08:47:37;19.30;99.90
6307;DHT22;3186;54.062;9.962;2023-08-30T08:50:04;19.30;99.90
6307;DHT22;3186;54.062;9.962;2023-08-30T08:52:30;19.40;99.90
6307;DHT22;3186;54.062;9.962;2023-08-30T08:54:57;19.70;99.90
6307;DHT22;3186;54.062;9.962;2023-08-30T08:57:23;19.80;99.90
6307;DHT22;3186;54.062;9.962;2023-08-30T08:59:49;19.80;99.90
6307;DHT22;3186;54.062;9.962;2023-08-30T09:02:16;19.90;99.90
6307;DHT22;3186;54.062;9.962;2023-08-30T09:04:42;19.90;99.90
6307;DHT22;3186;54.062;9.962;2023-08-30T09:07:07;20.20;99.90
6307;DHT22;3186;54.062;9.962;2023-08-30T09:09:34;20.00;99.90
6307;DHT22;3186;54.062;9.962;2023-08-30T09:12:00;20.20;99.90
6307;DHT22;3186;54.062;9.962;2023-08-30T09:14:26;20.20;99.90
6307;DHT22;3186;54.062;9.962;2023-08-30T09:19:21;20.40;99.90
6307;DHT22;3186;54.062;9.962;2023-08-30T09:21:58;20.50;99.90
6307;DHT22;3186;54.062;9.962;2023-08-30T09:24:24;20.50;99.90
6307;DHT22;3186;54.062;9.962;2023-08-30T09:26:51;20.70;99.90
6307;DHT22;3186;54.062;9.962;2023-08-30T09:29:18;20.90;99.90
6307;DHT22;3186;54.062;9.962;2023-08-30T09:31:45;20.90;99.90
6307;DHT22;3186;54.062;9.962;2023-08-30T09:34:11;20.90;99.90
6307;DHT22;3186;54.062;9.962;2023-08-30T09:36:39;20.90;99.90
6307;DHT22;3186;54.062;9.962;2023-08-30T09:39:06;20.90;99.90
6307;DHT22;3186;54.062;9.962;2023-08-30T09:41:32;20.60;99.90
6307;DHT22;3186;54.062;9.962;2023-08-30T09:44:00;20.80;99.90
6307;DHT22;3186;54.062;9.962;2023-08-30T09:46:31;20.80;99.90
6307;DHT22;3186;54.062;9.962;2023-08-30T09:48:57;20.70;99.90
6307;DHT22;3186;54.062;9.962;2023-08-30T09:51:24;20.90;99.90
6307;DHT22;3186;54.062;9.962;2023-08-30T09:53:54;21.00;99.90
6307;DHT22;3186;54.062;9.962;2023-08-30T09:56:23;21.10;99.90
6307;DHT22;3186;54.062;9.962;2023-08-30T09:58:51;21.20;99.90
6307;DHT22;3186;54.062;9.962;2023-08-30T10:01:17;21.20;99.90
6307;DHT22;3186;54.062;9.962;2023-08-30T10:03:43;21.30;99.90
6307;DHT22;3186;54.062;9.962;2023-08-30T10:06:08;21.30;99.90
6307;DHT22;3186;54.062;9.962;2023-08-30T10:08:34;21.10;99.90
6307;DHT22;3186;54.062;9.962;2023-08-30T10:11:02;21.20;99.90
6307;DHT22;3186;54.062;9.962;2023-08-30T10:13:29;21.20;99.90
6307;DHT22;3186;54.062;9.962;2023-08-30T10:16:00;21.00;99.90
6307;DHT22;3186;54.062;9.962;2023-08-30T10:18:29;21.00;99.90
6307;DHT22;3186;54.062;9.962;2023-08-30T10:20:59;21.00;99.90
6307;DHT22;3186;54.062;9.962;2023-08-30T10:23:25;21.20;99.90
6307;DHT22;3186;54.062;9.962;2023-08-30T10:25:52;21.30;99.90
6307;DHT22;3186;54.062;9.962;2023-08-30T10:28:20;21.40;99.90
6307;DHT22;3186;54.062;9.962;2023-08-30T10:30:47;21.40;99.90
6307;DHT22;3186;54.062;9.962;2023-08-30T10:33:13;21.40;99.90
6307;DHT22;3186;54.062;9.962;2023-08-30T10:35:49;21.40;99.90
6307;DHT22;3186;54.062;9.962;2023-08-30T10:38:27;21.40;99.90
6307;DHT22;3186;54.062;9.962;2023-08-30T10:40:54;21.50;92.00
6307;DHT22;3186;54.062;9.962;2023-08-30T10:43:33;21.60;99.90
6307;DHT22;3186;54.062;9.962;2023-08-30T10:46:01;21.70;99.90
6307;DHT22;3186;54.062;9.962;2023-08-30T10:48:38;21.90;99.90
6307;DHT22;3186;54.062;9.962;2023-08-30T10:51:06;21.70;99.40
6307;DHT22;3186;54.062;9.962;2023-08-30T10:53:33;21.60;99.90
6307;DHT22;3186;54.062;9.962;2023-08-30T10:56:11;21.70;92.60
6307;DHT22;3186;54.062;9.962;2023-08-30T10:58:44;21.60;99.90
6307;DHT22;3186;54.062;9.962;2023-08-30T11:01:10;21.90;99.90
6307;DHT22;3186;54.062;9.962;2023-08-30T11:03:40;22.00;99.90
6307;DHT22;3186;54.062;9.962;2023-08-30T11:06:06;22.20;99.90
6307;DHT22;3186;54.062;9.962;2023-08-30T11:08:31;22.10;99.90
6307;DHT22;3186;54.062;9.962;2023-08-30T11:11:05;22.40;99.90
6307;DHT22;3186;54.062;9.962;2023-08-30T11:13:31;22.40;99.90
6307;DHT22;3186;54.062;9.962;2023-08-30T11:16:01;22.50;93.80
6307;DHT22;3186;54.062;9.962;2023-08-30T11:18:39;22.40;72.30
6307;DHT22;3186;54.062;9.962;2023-08-30T11:21:05;22.30;95.80
6307;DHT22;3186;54.062;9.962;2023-08-30T11:23:32;22.40;97.70
6307;DHT22;3186;54.062;9.962;2023-08-30T11:25:58;22.60;99.90
6307;DHT22;3186;54.062;9.962;2023-08-30T11:28:24;22.70;99.90
6307;DHT22;3186;54.062;9.962;2023-08-30T11:30:54;22.60;94.10
6307;DHT22;3186;54.062;9.962;2023-08-30T11:33:21;22.60;99.90
6307;DHT22;3186;54.062;9.962;2023-08-30T11:35:49;22.70;99.90
6307;DHT22;3186;54.062;9.962;2023-08-30T11:38:17;22.80;99.90
6307;DHT22;3186;54.062;9.962;2023-08-30T11:40:44;22.70;99.90
6307;DHT22;3186;54.062;9.962;2023-08-30T11:43:10;22.70;99.90
6307;DHT22;3186;54.062;9.962;2023-08-30T11:45:36;22.80;99.90
6307;DHT22;3186;54.062;9.962;2023-08-30T11:48:02;22.80;99.90
6307;DHT22;3186;54.062;9.962;2023-08-30T11:50:28;22.70;99.90
6307;DHT22;3186;54.062;9.962;2023-08-30T11:52:55;22.90;92.90
6307;DHT22;3186;54.062;9.962;2023-08-30T11:55:22;22.90;99.90
6307;DHT22;3186;54.062;9.962;2023-08-30T11:57:52;22.90;99.90
6307;DHT22;3186;54.062;9.962;2023-08-30T12:00:21;23.00;90.70
6307;DHT22;3186;54.062;9.962;2023-08-30T12:02:47;23.00;98.40
6307;DHT22;3186;54.062;9.962;2023-08-30T12:05:13;23.00;90.60
6307;DHT22;3186;54.062;9.962;2023-08-30T12:07:39;23.20;99.90
6307;DHT22;3186;54.062;9.962;2023-08-30T12:10:12;23.40;89.90
6307;DHT22;3186;54.062;9.962;2023-08-30T12:12:38;23.50;95.40
6307;DHT22;3186;54.062;9.962;2023-08-30T12:15:10;23.40;99.90
6307;DHT22;3186;54.062;9.962;2023-08-30T12:17:36;23.30;96.30
6307;DHT22;3186;54.062;9.962;2023-08-30T12:20:03;23.50;99.90
6307;DHT22;3186;54.062;9.962;2023-08-30T12:22:39;23.80;99.90
6307;DHT22;3186;54.062;9.962;2023-08-30T12:25:19;23.80;90.90
6307;DHT22;3186;54.062;9.962;2023-08-30T12:27:45;23.70;99.90
6307;DHT22;3186;54.062;9.962;2023-08-30T12:30:11;23.70;96.10
6307;DHT22;3186;54.062;9.962;2023-08-30T12:32:37;23.70;81.00
6307;DHT22;3186;54.062;9.962;2023-08-30T12:35:03;23.80;99.90
6307;DHT22;3186;54.062;9.962;2023-08-30T12:37:28;24.10;99.90
6307;DHT22;3186;54.062;9.962;2023-08-30T12:39:54;24.00;94.00
6307;DHT22;3186;54.062;9.962;2023-08-30T12:42:20;23.80;73.60
6307;DHT22;3186;54.062;9.962;2023-08-30T12:44:46;24.10;99.90
6307;DHT22;3186;54.062;9.962;2023-08-30T12:47:11;24.10;90.10
6307;DHT22;3186;54.062;9.962;2023-08-30T12:49:39;24.10;86.30
6307;DHT22;3186;54.062;9.962;2023-08-30T12:52:06;24.20;93.20
6307;DHT22;3186;54.062;9.962;2023-08-30T12:54:32;24.40;87.00
6307;DHT22;3186;54.062;9.962;2023-08-30T12:56:58;24.50;98.70
6307;DHT22;3186;54.062;9.962;2023-08-30T12:59:24;24.50;95.10
6307;DHT22;3186;54.062;9.962;2023-08-30T13:01:50;24.40;97.70
6307;DHT22;3186;54.062;9.962;2023-08-30T13:04:15;24.40;98.80
6307;DHT22;3186;54.062;9.962;2023-08-30T13:06:41;24.70;99.90
6307;DHT22;3186;54.062;9.962;2023-08-30T13:09:07;24.50;62.00
6307;DHT22;3186;54.062;9.962;2023-08-30T13:11:33;24.50;99.90
6307;DHT22;3186;54.062;9.962;2023-08-30T13:13:59;24.70;92.00
6307;DHT22;3186;54.062;9.962;2023-08-30T13:16:25;24.90;99.90
6307;DHT22;3186;54.062;9.962;2023-08-30T13:18:50;24.80;89.20
6307;DHT22;3186;54.062;9.962;2023-08-30T13:21:16;25.10;90.80
6307;DHT22;3186;54.062;9.962;2023-08-30T13:23:42;25.20;99.90
6307;DHT22;3186;54.062;9.962;2023-08-30T13:26:08;25.40;47.50
6307;DHT22;3186;54.062;9.962;2023-08-30T13:28:33;24.80;86.80
6307;DHT22;3186;54.062;9.962;2023-08-30T13:30:59;25.00;99.90
6307;DHT22;3186;54.062;9.962;2023-08-30T13:33:26;24.90;97.50
6307;DHT22;3186;54.062;9.962;2023-08-30T13:35:53;24.80;86.00
6307;DHT22;3186;54.062;9.962;2023-08-30T13:38:19;25.00;99.90
6307;DHT22;3186;54.062;9.962;2023-08-30T13:40:45;25.00;95.50
6307;DHT22;3186;54.062;9.962;2023-08-30T13:43:11;25.10;99.90
6307;DHT22;3186;54.062;9.962;2023-08-30T13:45:37;25.20;91.70
6307;DHT22;3186;54.062;9.962;2023-08-30T13:48:03;25.20;34.50
6307;DHT22;3186;54.062;9.962;2023-08-30T13:50:29;25.50;99.90
6307;DHT22;3186;54.062;9.962;2023-08-30T13:52:57;25.50;99.90
6307;DHT22;3186;54.062;9.962;2023-08-30T13:55:24;25.60;32.60
6307;DHT22;3186;54.062;9.962;2023-08-30T13:57:49;25.60;99.90
6307;DHT22;3186;54.062;9.962;2023-08-30T14:00:16;25.90;85.80
6307;DHT22;3186;54.062;9.962;2023-08-30T14:02:42;25.90;83.90
6307;DHT22;3186;54.062;9.962;2023-08-30T14:05:08;25.60;81.60
6307;DHT22;3186;54.062;9.962;2023-08-30T14:07:34;25.20;90.30
6307;DHT22;3186;54.062;9.962;2023-08-30T14:10:00;25.50;97.30
6307;DHT22;3186;54.062;9.962;2023-08-30T14:12:26;25.60;99.90
6307;DHT22;3186;54.062;9.962;2023-08-30T14:14:51;25.80;99.90
6307;DHT22;3186;54.062;9.962;2023-08-30T14:17:18;25.80;99.90
6307;DHT22;3186;54.062;9.962;2023-08-30T14:19:44;26.00;87.50
6307;DHT22;3186;54.062;9.962;2023-08-30T14:22:10;25.60;40.30
6307;DHT22;3186;54.062;9.962;2023-08-30T14:24:36;25.40;99.90
6307;DHT22;3186;54.062;9.962;2023-08-30T14:27:03;25.40;99.90
6307;DHT22;3186;54.062;9.962;2023-08-30T14:29:29;25.70;99.90
6307;DHT22;3186;54.062;9.962;2023-08-30T14:31:54;25.70;92.30
6307;DHT22;3186;54.062;9.962;2023-08-30T14:34:21;25.90;99.90
6307;DHT22;3186;54.062;9.962;2023-08-30T14:36:46;25.90;96.70
6307;DHT22;3186;54.062;9.962;2023-08-30T14:39:14;25.90;99.90
6307;DHT22;3186;54.062;9.962;2023-08-30T14:41:40;26.00;99.90
6307;DHT22;3186;54.062;9.962;2023-08-30T14:44:07;25.90;99.90
6307;DHT22;3186;54.062;9.962;2023-08-30T14:46:33;26.00;99.90
6307;DHT22;3186;54.062;9.962;2023-08-30T14:48:59;25.50;94.80
6307;DHT22;3186;54.062;9.962;2023-08-30T14:51:25;25.50;99.90
6307;DHT22;3186;54.062;9.962;2023-08-30T14:53:51;25.40;99.90
6307;DHT22;3186;54.062;9.962;2023-08-30T14:56:17;25.40;94.70
6307;DHT22;3186;54.062;9.962;2023-08-30T14:58:43;25.40;99.90
6307;DHT22;3186;54.062;9.962;2023-08-30T15:01:14;25.50;99.90
6307;DHT22;3186;54.062;9.962;2023-08-30T15:03:41;25.50;99.90
6307;DHT22;3186;54.062;9.962;2023-08-30T15:06:07;25.50;99.30
6307;DHT22;3186;54.062;9.962;2023-08-30T15:08:32;25.50;99.90
6307;DHT22;3186;54.062;9.962;2023-08-30T15:10:58;25.40;99.90
6307;DHT22;3186;54.062;9.962;2023-08-30T15:13:24;25.20;86.80
6307;DHT22;3186;54.062;9.962;2023-08-30T15:15:50;25.10;99.90
6307;DHT22;3186;54.062;9.962;2023-08-30T15:18:15;25.00;99.90
6307;DHT22;3186;54.062;9.962;2023-08-30T15:20:41;25.10;99.90
6307;DHT22;3186;54.062;9.962;2023-08-30T15:23:09;25.00;99.90
6307;DHT22;3186;54.062;9.962;2023-08-30T15:25:43;25.00;99.90
6307;DHT22;3186;54.062;9.962;2023-08-30T15:28:08;24.90;99.90
6307;DHT22;3186;54.062;9.962;2023-08-30T15:30:34;24.80;99.70
6307;DHT22;3186;54.062;9.962;2023-08-30T15:33:00;24.80;99.90
6307;DHT22;3186;54.062;9.962;2023-08-30T15:35:26;24.80;99.90
6307;DHT22;3186;54.062;9.962;2023-08-30T15:37:51;24.70;99.90
6307;DHT22;3186;54.062;9.962;2023-08-30T15:40:17;24.60;99.90
6307;DHT22;3186;54.062;9.962;2023-08-30T15:42:43;24.50;99.90
6307;DHT22;3186;54.062;9.962;2023-08-30T15:45:09;24.50;99.90
6307;DHT22;3186;54.062;9.962;2023-08-30T15:47:35;24.50;99.90
6307;DHT22;3186;54.062;9.962;2023-08-30T15:50:01;24.40;99.90
6307;DHT22;3186;54.062;9.962;2023-08-30T15:52:27;24.40;99.90
6307;DHT22;3186;54.062;9.962;2023-08-30T15:54:53;24.30;99.90
6307;DHT22;3186;54.062;9.962;2023-08-30T15:57:20;24.30;99.90
6307;DHT22;3186;54.062;9.962;2023-08-30T15:59:46;24.20;99.90
6307;DHT22;3186;54.062;9.962;2023-08-30T16:02:11;24.20;99.90
6307;DHT22;3186;54.062;9.962;2023-08-30T16:04:38;24.20;99.90
6307;DHT22;3186;54.062;9.962;2023-08-30T16:07:04;24.00;99.90
6307;DHT22;3186;54.062;9.962;2023-08-30T16:09:30;24.00;99.90
6307;DHT22;3186;54.062;9.962;2023-08-30T16:11:55;23.90;99.90
6307;DHT22;3186;54.062;9.962;2023-08-30T16:14:22;23.90;99.90